Time;durP1;ratioP1;P1;durP2;ratioP2;P2;SDS_P1;SDS_P2;PMS_P1;PMS_P2;Temp;Humidity;BMP_temperature;BMP_pressure;BME280_temperature;BME280_humidity;BME280_pressure;Samples;Min_cycle;Max_cycle;Signal;HPM_P1;HPM_P2
2024/04/02 00:01:04;;;;;;;54.65;6.70;;;;;;;10.69;100.00;96788.94;4995353;28;20064;-61
2024/04/02 00:03:29;;;;;;;;;;;;;;;10.87;100.00;96784.22;4994337;28;20040;-62
2024/04/02 00:05:55;;;;;;;72.68;7.70;;;;;;;10.75;100.00;96788.81;4993459;28;19917;-61
2024/04/02 00:08:20;;;;;;;51.92;7.00;;;;;;;10.79;100.00;96790.47;4997439;28;20053;-62
2024/04/02 00:10:45;;;;;;;105.25;10.00;;;;;;;10.71;100.00;96784.56;4994165;28;20572;-63
2024/04/02 00:13:11;;;;;;;73.93;8.20;;;;;;;10.85;100.00;96788.59;4991970;28;20431;-61
2024/04/02 00:15:36;;;;;;;92.18;10.05;;;;;;;10.79;100.00;96790.47;4993766;28;20041;-61
2024/04/02 00:18:02;;;;;;;64.85;6.68;;;;;;;10.99;100.00;96794.31;4999745;28;20037;-62
2024/04/02 00:20:28;;;;;;;58.85;7.15;;;;;;;10.85;100.00;96805.06;4995946;28;20033;-61
2024/04/02 00:22:53;;;;;;;66.00;15.07;;;;;;;10.73;100.00;96798.38;4998190;28;20096;-60
2024/04/02 00:25:18;;;;;;;39.00;5.38;;;;;;;10.83;100.00;96809.44;4992926;28;20041;-63
2024/04/02 00:27:44;;;;;;;99.53;9.25;;;;;;;10.70;100.00;96810.63;4988118;28;20309;-62
2024/04/02 00:30:11;;;;;;;57.45;6.53;;;;;;;10.76;100.00;96816.53;4996994;28;20021;-63
2024/04/02 00:32:37;;;;;;;85.07;9.18;;;;;;;10.66;100.00;96815.88;4993452;28;20489;-63
2024/04/02 00:35:03;;;;;;;54.72;6.32;;;;;;;10.85;100.00;96815.47;4995409;28;20034;-62
2024/04/02 00:37:28;;;;;;;53.67;6.22;;;;;;;10.86;100.00;96822.38;4993946;28;20039;-59
2024/04/02 00:39:59;;;;;;;52.45;6.45;;;;;;;10.95;100.00;96813.47;4995928;28;20022;-59
2024/04/02 00:42:24;;;;;;;55.85;6.53;;;;;;;10.61;100.00;96816.91;4994727;28;20046;-60
2024/04/02 00:44:50;;;;;;;69.22;7.85;;;;;;;10.43;100.00;96821.53;4997337;28;20039;-60
2024/04/02 00:47:15;;;;;;;49.95;6.93;;;;;;;10.41;100.00;96828.53;4994578;28;20064;-62
2024/04/02 00:49:41;;;;;;;85.53;9.40;;;;;;;10.47;100.00;96823.22;4992021;28;20364;-60
2024/04/02 00:52:07;;;;;;;51.60;6.93;;;;;;;10.38;100.00;96829.47;4997323;28;20129;-61
2024/04/02 00:54:34;;;;;;;51.85;7.70;;;;;;;10.44;100.00;96832.81;4995029;28;20040;-62
2024/04/02 00:56:59;;;;;;;57.35;6.57;;;;;;;10.46;100.00;96846.69;4995012;28;20560;-61
2024/04/02 00:59:26;;;;;;;59.53;7.15;;;;;;;10.46;100.00;96838.88;4996101;28;20030;-62
2024/04/02 01:01:51;;;;;;;61.72;7.88;;;;;;;10.54;100.00;96843.00;4993320;28;21284;-61
2024/04/02 01:04:20;;;;;;;53.50;6.45;;;;;;;10.60;100.00;96846.34;4990565;28;20034;-63
2024/04/02 01:06:47;;;;;;;100.07;9.32;;;;;;;10.63;100.00;96846.31;4990101;28;20506;-60
2024/04/02 01:09:14;;;;;;;44.72;6.10;;;;;;;10.62;100.00;96847.19;4986349;28;20034;-60
2024/04/02 01:11:41;;;;;;;83.55;8.88;;;;;;;10.53;100.00;96858.63;4991067;28;20058;-62
2024/04/02 01:14:06;;;;;;;56.33;7.40;;;;;;;10.57;100.00;96847.28;4993196;28;20506;-61
2024/04/02 01:16:31;;;;;;;53.05;6.82;;;;;;;10.65;100.00;96854.94;4992252;28;20064;-59
2024/04/02 01:18:57;;;;;;;66.80;7.70;;;;;;;10.65;100.00;96857.53;4991025;28;20030;-61
2024/04/02 01:21:22;;;;;;;60.05;7.13;;;;;;;10.52;100.00;96859.53;4993568;28;20583;-60
2024/04/02 01:23:47;;;;;;;92.03;9.43;;;;;;;10.60;100.00;96868.03;4993722;28;20482;-61
2024/04/02 01:26:13;;;;;;;55.75;6.80;;;;;;;10.71;100.00;96873.00;4992965;28;20061;-62
2024/04/02 01:28:39;;;;;;;95.00;9.48;;;;;;;10.86;100.00;96878.72;4992550;28;20394;-60
2024/04/02 01:31:05;;;;;;;48.75;6.38;;;;;;;10.74;100.00;96880.75;4995471;28;20034;-61
2024/04/02 01:33:30;;;;;;;56.92;6.57;;;;;;;10.46;100.00;96881.31;4993442;28;20247;-61
2024/04/02 01:35:56;;;;;;;49.40;6.80;;;;;;;10.66;100.00;96886.06;4989729;28;20313;-62
2024/04/02 01:38:21;;;;;;;50.88;6.75;;;;;;;10.82;100.00;96890.97;4994043;28;20014;-61
2024/04/02 01:40:47;;;;;;;104.25;10.10;;;;;;;10.72;100.00;96895.50;4991062;28;20040;-59
2024/04/02 01:43:12;;;;;;;61.58;6.55;;;;;;;10.59;100.00;96894.91;4992317;28;20045;-62
2024/04/02 01:45:40;;;;;;;75.93;8.68;;;;;;;10.65;100.00;96893.94;4991411;28;20121;-60
2024/04/02 01:48:06;;;;;;;51.92;6.82;;;;;;;10.69;100.00;96890.34;4990734;28;20525;-59
2024/04/02 01:50:31;;;;;;;51.58;6.90;;;;;;;10.53;100.00;96903.69;4992901;28;20046;-60
2024/04/02 01:52:57;;;;;;;68.50;7.28;;;;;;;10.72;100.00;96910.28;4989045;28;20029;-60
2024/04/02 01:55:22;;;;;;;54.53;6.65;;;;;;;10.60;100.00;96908.75;4995611;28;20021;-60
2024/04/02 01:57:48;;;;;;;97.63;9.80;;;;;;;10.61;100.00;96913.09;4989755;28;20334;-59
2024/04/02 02:00:14;;;;;;;79.07;8.20;;;;;;;10.59;100.00;96922.66;4987990;28;20529;-60
2024/04/02 02:02:40;;;;;;;77.20;9.10;;;;;;;10.57;100.00;96916.66;4984185;28;20116;-60
2024/04/02 02:05:06;;;;;;;47.33;8.88;;;;;;;10.64;100.00;96910.41;4990602;28;20531;-59
2024/04/02 02:07:31;;;;;;;62.78;6.75;;;;;;;10.59;100.00;96918.31;4990959;28;20438;-59
2024/04/02 02:09:57;;;;;;;65.78;6.93;;;;;;;10.52;100.00;96922.78;4991269;28;20044;-59
2024/04/02 02:12:22;;;;;;;50.80;6.20;;;;;;;10.63;100.00;96926.91;4996964;28;20603;-63
2024/04/02 02:14:47;;;;;;;99.88;10.45;;;;;;;10.65;100.00;96925.97;4990617;28;20117;-62
2024/04/02 02:17:13;;;;;;;59.65;8.25;;;;;;;10.47;100.00;96929.81;4992897;28;20084;-61
2024/04/02 02:19:38;;;;;;;60.33;7.55;;;;;;;10.42;100.00;96927.28;4994718;28;20415;-61
2024/04/02 02:22:03;;;;;;;51.40;6.68;;;;;;;10.32;100.00;96932.69;4989039;28;20045;-61
2024/04/02 02:24:29;;;;;;;64.85;7.82;;;;;;;10.24;100.00;96940.66;4993032;28;20034;-60
2024/04/02 02:26:55;;;;;;;99.35;9.90;;;;;;;10.09;100.00;96940.03;4991879;28;20501;-59
2024/04/02 02:29:23;;;;;;;60.83;6.95;;;;;;;10.18;100.00;96949.41;4997294;28;20524;-61
2024/04/02 02:31:48;;;;;;;99.80;10.13;;;;;;;10.26;100.00;96954.44;4988304;28;20053;-62
2024/04/02 02:34:14;;;;;;;45.67;7.47;;;;;;;10.32;100.00;96961.28;4996559;28;20025;-60
2024/04/02 02:36:39;;;;;;;60.28;7.18;;;;;;;10.46;100.00;96963.66;4994744;28;20579;-62
2024/04/02 02:39:04;;;;;;;77.80;8.60;;;;;;;10.32;100.00;96966.47;4993557;28;20013;-61
2024/04/02 02:41:30;;;;;;;45.10;6.95;;;;;;;10.43;100.00;96974.91;4991590;28;20069;-61
2024/04/02 02:43:56;;;;;;;90.32;9.88;;;;;;;10.45;100.00;96967.13;4993009;28;20336;-61
2024/04/02 02:46:22;;;;;;;63.58;7.60;;;;;;;10.42;100.00;96973.19;4993846;28;20489;-61
2024/04/02 02:48:47;;;;;;;94.70;9.50;;;;;;;10.32;100.00;96980.31;4998917;28;20089;-59
2024/04/02 02:51:12;;;;;;;44.08;6.55;;;;;;;10.33;100.00;96974.25;4989951;28;20339;-59
2024/04/02 02:53:38;;;;;;;62.92;7.65;;;;;;;10.33;100.00;96976.84;4996934;28;20030;-60
2024/04/02 02:56:03;;;;;;;47.30;6.65;;;;;;;10.26;100.00;96993.44;4993517;28;20327;-60
2024/04/02 02:58:29;;;;;;;44.50;6.28;;;;;;;10.40;100.00;96987.97;4995542;28;20019;-60
2024/04/02 03:00:54;;;;;;;84.68;9.15;;;;;;;10.47;100.00;96991.34;4992008;28;20481;-60
2024/04/02 03:03:20;;;;;;;43.38;6.30;;;;;;;10.46;100.00;96995.69;4995555;28;20045;-62
2024/04/02 03:05:55;;;;;;;88.75;9.15;;;;;;;10.53;100.00;96996.41;4992500;28;20046;-62
2024/04/02 03:08:21;;;;;;;62.50;7.00;;;;;;;10.73;100.00;96996.03;4993309;28;20018;-61
2024/04/02 03:10:59;;;;;;;101.53;9.60;;;;;;;10.55;100.00;97000.69;4993013;28;20092;-60
2024/04/02 03:13:24;;;;;;;57.03;6.60;;;;;;;10.44;100.00;97005.28;5005349;28;20066;-60
2024/04/02 03:15:50;;;;;;;110.00;10.50;;;;;;;10.47;100.00;97010.38;4988188;28;20081;-62
2024/04/02 03:18:15;;;;;;;65.53;7.20;;;;;;;10.39;100.00;97014.84;4990864;28;20026;-62
2024/04/02 03:20:40;;;;;;;78.97;8.38;;;;;;;10.43;100.00;97016.50;4998261;28;20116;-63
2024/04/02 03:23:06;;;;;;;77.95;7.95;;;;;;;10.47;100.00;97017.34;4992314;28;20022;-60
2024/04/02 03:25:31;;;;;;;56.95;6.78;;;;;;;10.40;100.00;97022.63;4991157;28;20049;-62
2024/04/02 03:27:56;;;;;;;81.50;9.05;;;;;;;10.55;100.00;97024.09;4988900;28;20418;-60
2024/04/02 03:30:22;;;;;;;58.75;7.20;;;;;;;10.53;100.00;97032.81;4993591;28;20041;-63
2024/04/02 03:32:47;;;;;;;101.13;10.25;;;;;;;10.46;100.00;97032.06;4991888;28;20221;-61
2024/04/02 03:35:12;;;;;;;44.22;6.35;;;;;;;10.38;100.00;97021.78;4998199;28;20026;-61
2024/04/02 03:37:38;;;;;;;58.15;6.88;;;;;;;10.57;100.00;97028.44;4996927;28;20021;-63
2024/04/02 03:40:03;;;;;;;64.53;6.70;;;;;;;10.45;100.00;97032.09;4998346;28;20045;-59
2024/04/02 03:42:29;;;;;;;49.65;6.25;;;;;;;10.61;100.00;97032.69;4997493;28;20038;-63
2024/04/02 03:44:54;;;;;;;88.15;9.10;;;;;;;10.47;100.00;97036.38;4992450;28;20022;-60
2024/04/02 03:47:19;;;;;;;52.28;7.07;;;;;;;10.45;100.00;97045.09;4995454;28;20050;-62
2024/04/02 03:49:45;;;;;;;82.13;8.93;;;;;;;10.54;100.00;97037.13;4994872;28;20028;-62
2024/04/02 03:52:10;;;;;;;39.92;5.55;;;;;;;10.58;100.00;97036.19;4996532;28;20124;-62
2024/04/02 03:54:36;;;;;;;65.07;7.70;;;;;;;10.52;100.00;97039.78;4997897;28;20109;-60
2024/04/02 03:57:01;;;;;;;64.95;7.70;;;;;;;10.31;100.00;97042.75;4992198;28;20046;-62
2024/04/02 03:59:27;;;;;;;52.97;6.40;;;;;;;10.37;100.00;97047.81;4997847;28;20034;-61
2024/04/02 04:01:52;;;;;;;84.05;8.45;;;;;;;10.38;100.00;97052.13;4996489;28;20037;-61
2024/04/02 04:04:17;;;;;;;47.10;6.53;;;;;;;10.31;100.00;97048.78;4994952;28;20037;-60
2024/04/02 04:06:43;;;;;;;53.05;6.90;;;;;;;10.38;100.00;97053.00;4994842;28;20074;-59
2024/04/02 04:09:08;;;;;;;71.13;7.53;;;;;;;10.33;100.00;97046.16;4993826;28;20168;-62
2024/04/02 04:11:33;;;;;;;45.15;6.03;;;;;;;10.37;100.00;97048.69;4993434;28;20050;-61
2024/04/02 04:14:01;;;;;;;89.05;9.55;;;;;;;10.30;100.00;97047.06;4997311;28;20110;-63
2024/04/02 04:16:26;;;;;;;51.35;7.07;;;;;;;10.33;100.00;97056.53;4995617;28;20048;-59
2024/04/02 04:18:52;;;;;;;92.68;11.60;;;;;;;10.12;100.00;97053.44;4996728;28;20022;-61
2024/04/02 04:21:17;;;;;;;48.65;6.10;;;;;;;10.17;100.00;97049.00;4998993;28;20038;-62
2024/04/02 04:23:42;;;;;;;50.42;6.93;;;;;;;10.01;100.00;97057.06;4999391;28;20045;-60
2024/04/02 04:26:08;;;;;;;57.03;6.70;;;;;;;10.10;100.00;97055.22;4996903;28;20037;-60
2024/04/02 04:28:33;;;;;;;50.70;6.63;;;;;;;10.02;100.00;97053.56;4995976;28;20038;-61
2024/04/02 04:31:00;;;;;;;95.18;9.25;;;;;;;10.05;100.00;97052.66;4991405;28;20073;-62
2024/04/02 04:33:27;;;;;;;65.15;7.63;;;;;;;10.05;100.00;97059.63;4996186;28;20141;-58
2024/04/02 04:35:53;;;;;;;108.68;10.25;;;;;;;9.99;100.00;97063.19;4991473;28;20254;-60
2024/04/02 04:38:20;;;;;;;50.63;6.20;;;;;;;10.23;100.00;97069.69;4998297;28;20471;-60
2024/04/02 04:40:46;;;;;;;79.93;8.13;;;;;;;10.08;100.00;97077.75;4995694;28;20045;-60
2024/04/02 04:43:14;;;;;;;55.92;6.82;;;;;;;9.97;100.00;97076.19;4998020;28;20029;-60
2024/04/02 04:45:39;;;;;;;44.58;5.97;;;;;;;10.19;100.00;97072.38;4999715;28;20034;-62
2024/04/02 04:48:06;;;;;;;53.28;7.28;;;;;;;10.11;100.00;97073.38;4997171;28;20057;-60
2024/04/02 04:50:32;;;;;;;47.38;6.53;;;;;;;10.08;100.00;97077.75;4994900;28;20081;-59
2024/04/02 04:52:57;;;;;;;69.10;8.07;;;;;;;10.08;100.00;97088.13;4996081;28;20976;-61
2024/04/02 04:55:22;;;;;;;66.00;7.72;;;;;;;10.10;100.00;97084.63;4996938;28;20042;-62
2024/04/02 04:57:47;;;;;;;61.22;7.63;;;;;;;10.02;100.00;97095.16;4997966;28;20221;-59
2024/04/02 05:00:13;;;;;;;70.18;7.72;;;;;;;9.99;100.00;97094.34;4997946;28;20037;-59
2024/04/02 05:02:39;;;;;;;65.18;8.00;;;;;;;10.14;100.00;97096.69;4996884;28;20045;-60
2024/04/02 05:05:06;;;;;;;57.10;7.97;;;;;;;10.17;100.00;97106.16;4992720;28;20033;-61
2024/04/02 05:07:32;;;;;;;56.17;7.75;;;;;;;10.05;100.00;97103.78;4994779;28;20026;-61
2024/04/02 05:09:57;;;;;;;90.38;9.75;;;;;;;10.09;100.00;97100.25;4997085;28;20033;-62
2024/04/02 05:12:23;;;;;;;52.53;7.13;;;;;;;10.00;100.00;97104.72;5002438;28;20062;-60
2024/04/02 05:14:48;;;;;;;62.25;7.95;;;;;;;10.23;100.00;97098.28;4997591;28;20041;-62
2024/04/02 05:17:13;;;;;;;64.57;7.55;;;;;;;10.11;100.00;97108.88;4996967;28;20038;-60
2024/04/02 05:19:38;;;;;;;40.03;6.65;;;;;;;10.30;100.00;97109.44;4999400;28;20124;-60
2024/04/02 05:22:06;;;;;;;63.60;7.90;;;;;;;10.18;100.00;97114.84;4998745;28;20568;-62
2024/04/02 05:24:32;;;;;;;46.38;7.03;;;;;;;10.22;100.00;97114.78;4995658;28;20034;-60
2024/04/02 05:26:59;;;;;;;77.82;8.35;;;;;;;10.23;100.00;97105.22;4998716;28;20049;-61
2024/04/02 05:29:24;;;;;;;50.00;6.60;;;;;;;10.32;100.00;97112.00;4996218;28;20084;-59
2024/04/02 05:31:49;;;;;;;66.38;8.27;;;;;;;10.32;100.00;97114.63;4997093;28;20101;-63
2024/04/02 05:34:15;;;;;;;57.30;6.85;;;;;;;10.35;100.00;97112.81;4995702;28;20544;-61
2024/04/02 05:36:40;;;;;;;52.78;6.32;;;;;;;10.40;100.00;97120.56;4996286;28;20038;-60
2024/04/02 05:39:06;;;;;;;65.55;7.60;;;;;;;10.18;100.00;97125.22;4995565;28;20466;-60
2024/04/02 05:41:31;;;;;;;56.05;7.68;;;;;;;10.16;100.00;97127.84;4994734;28;20664;-60
2024/04/02 05:43:57;;;;;;;75.93;8.48;;;;;;;10.17;100.00;97129.56;4999415;28;20079;-61
2024/04/02 05:46:22;;;;;;;48.42;6.93;;;;;;;10.29;100.00;97129.34;4996056;28;20031;-61
2024/04/02 05:48:47;;;;;;;66.93;7.57;;;;;;;10.43;100.00;97128.28;4993071;28;20029;-58
2024/04/02 05:51:13;;;;;;;51.78;7.25;;;;;;;10.47;100.00;97131.72;4998835;28;20556;-62
2024/04/02 05:53:38;;;;;;;59.25;7.80;;;;;;;10.51;100.00;97131.63;4998513;28;20102;-61
2024/04/02 05:56:05;;;;;;;74.43;14.02;;;;;;;10.51;100.00;97138.59;4994822;28;20081;-58
2024/04/02 05:58:31;;;;;;;54.08;7.22;;;;;;;10.72;100.00;97129.56;4997757;28;20550;-58
2024/04/02 06:01:06;;;;;;;66.20;7.65;;;;;;;11.22;100.00;97141.66;4996539;28;20080;-61
2024/04/02 06:03:32;;;;;;;65.88;7.45;;;;;;;11.25;100.00;97136.38;4995679;28;20063;-61
2024/04/02 06:06:00;;;;;;;55.78;7.32;;;;;;;11.25;100.00;97144.19;4995963;28;20038;-60
2024/04/02 06:08:26;;;;;;;46.45;6.05;;;;;;;11.46;100.00;97144.66;4995998;28;20381;-59
2024/04/02 06:10:51;;;;;;;80.03;8.55;;;;;;;10.88;100.00;97152.69;4995573;28;20309;-61
2024/04/02 06:13:16;;;;;;;53.08;6.50;;;;;;;10.89;100.00;97144.00;4995011;28;20024;-61
2024/04/02 06:15:42;;;;;;;47.08;6.88;;;;;;;10.72;100.00;97152.13;4997716;28;20407;-58
2024/04/02 06:18:08;;;;;;;42.63;6.35;;;;;;;10.97;100.00;97154.25;4991746;28;20607;-61
2024/04/02 06:20:34;;;;;;;54.25;7.28;;;;;;;10.84;100.00;97151.03;4992543;28;20137;-59
2024/04/02 06:22:59;;;;;;;68.28;11.65;;;;;;;10.87;100.00;97145.78;4997696;28;20039;-61
2024/04/02 06:25:25;;;;;;;53.40;8.45;;;;;;;10.60;100.00;97158.38;4998493;28;20486;-63
2024/04/02 06:27:50;;;;;;;69.07;8.45;;;;;;;10.57;100.00;97158.44;4997364;28;20491;-61
2024/04/02 06:30:16;;;;;;;50.25;6.97;;;;;;;10.66;100.00;97155.69;4995534;28;20111;-61
2024/04/02 06:32:41;;;;;;;64.05;7.13;;;;;;;10.83;100.00;97155.38;4994730;28;20030;-62
2024/04/02 06:35:06;;;;;;;65.88;8.35;;;;;;;11.31;100.00;97169.22;4993453;28;20247;-58
2024/04/02 06:37:32;;;;;;;41.67;6.68;;;;;;;11.22;100.00;97154.69;4996476;28;20489;-60
2024/04/02 06:39:57;;;;;;;75.45;8.13;;;;;;;11.13;100.00;97167.88;4994421;28;20497;-61
2024/04/02 06:42:23;;;;;;;54.60;7.20;;;;;;;11.32;100.00;97164.00;4995195;28;20093;-60
2024/04/02 06:44:49;;;;;;;61.28;21.23;;;;;;;11.26;100.00;97163.28;4995704;28;20393;-59
2024/04/02 06:47:14;;;;;;;36.55;6.38;;;;;;;11.51;100.00;97166.22;4994642;28;20231;-61
2024/04/02 06:49:40;;;;;;;40.45;6.13;;;;;;;11.73;100.00;97165.78;4993485;28;20102;-62
2024/04/02 06:52:05;;;;;;;60.67;7.13;;;;;;;11.04;100.00;97171.47;4991494;28;20045;-60
2024/04/02 06:54:31;;;;;;;52.17;7.35;;;;;;;11.02;100.00;97175.88;4993549;28;20037;-60
2024/04/02 06:56:56;;;;;;;99.15;37.58;;;;;;;10.72;100.00;97172.94;4989114;28;20046;-59
2024/04/02 06:59:21;;;;;;;54.70;6.95;;;;;;;10.83;100.00;97173.56;4990266;28;20330;-61
2024/04/02 07:01:47;;;;;;;45.75;6.68;;;;;;;11.13;100.00;97183.47;4994651;28;20085;-60
2024/04/02 07:04:12;;;;;;;45.40;7.00;;;;;;;11.62;100.00;97191.22;4993023;28;20410;-62
2024/04/02 07:06:38;;;;;;;70.85;11.63;;;;;;;11.77;100.00;97177.84;4995984;28;20411;-61
2024/04/02 07:09:04;;;;;;;64.93;7.32;;;;;;;11.55;100.00;97175.69;4997748;28;20136;-61
2024/04/02 07:11:29;;;;;;;81.53;53.83;;;;;;;10.98;100.00;97189.81;4995503;28;20626;-60
2024/04/02 07:13:55;;;;;;;87.22;11.15;;;;;;;11.20;100.00;97187.66;4999977;28;20483;-63
2024/04/02 07:16:20;;;;;;;54.67;7.70;;;;;;;10.96;100.00;97188.97;4999646;28;20068;-62
2024/04/02 07:18:45;;;;;;;62.78;7.10;;;;;;;10.91;100.00;97189.06;5001064;28;20022;-61
2024/04/02 07:21:11;;;;;;;54.63;7.15;;;;;;;11.17;100.00;97196.38;4996276;28;20489;-60
2024/04/02 07:23:36;;;;;;;57.50;7.18;;;;;;;11.19;100.00;97196.38;4999616;28;20659;-62
2024/04/02 07:26:03;;;;;;;79.97;12.95;;;;;;;11.32;100.00;97194.38;4996040;28;20038;-59
2024/04/02 07:28:29;;;;;;;51.15;10.38;;;;;;;11.96;100.00;97187.91;4996111;28;20029;-61
2024/04/02 07:30:54;;;;;;;57.65;7.07;;;;;;;12.86;100.00;97187.56;4996741;28;20487;-60
2024/04/02 07:33:20;;;;;;;49.92;9.35;;;;;;;13.49;100.00;97197.25;4998942;28;20589;-60
2024/04/02 07:35:45;;;;;;;66.68;7.57;;;;;;;14.52;100.00;97202.06;4997019;28;20117;-59
2024/04/02 07:38:11;;;;;;;43.72;6.63;;;;;;;15.20;100.00;97205.09;5001129;28;20041;-60
2024/04/02 07:40:37;;;;;;;63.63;7.38;;;;;;;14.43;100.00;97211.94;4998642;28;20045;-61
2024/04/02 07:43:05;;;;;;;67.63;8.43;;;;;;;13.74;100.00;97212.25;4996963;28;20022;-61
2024/04/02 07:45:31;;;;;;;51.83;12.38;;;;;;;13.10;100.00;97216.56;5000287;28;20034;-60
2024/04/02 07:47:56;;;;;;;72.32;8.27;;;;;;;13.76;100.00;97207.81;5001837;28;20327;-60
2024/04/02 07:50:21;;;;;;;49.15;6.38;;;;;;;12.91;100.00;97224.84;4998103;28;20045;-60
2024/04/02 07:52:47;;;;;;;51.20;6.70;;;;;;;13.35;100.00;97221.97;4992623;28;20022;-62
2024/04/02 07:55:12;;;;;;;57.03;9.90;;;;;;;13.19;100.00;97224.13;5000830;28;20033;-60
2024/04/02 07:57:37;;;;;;;44.40;6.75;;;;;;;12.81;100.00;97233.81;5000962;28;20228;-61
2024/04/02 08:00:03;;;;;;;67.50;8.15;;;;;;;12.97;100.00;97235.13;4996920;28;20029;-61
2024/04/02 08:02:28;;;;;;;43.63;11.07;;;;;;;12.60;100.00;97230.81;4999412;28;20176;-60
2024/04/02 08:04:54;;;;;;;63.17;8.73;;;;;;;11.97;100.00;97232.16;4999565;28;20026;-60
2024/04/02 08:07:20;;;;;;;57.58;6.72;;;;;;;12.30;100.00;97241.94;4997192;28;20057;-59
2024/04/02 08:09:45;;;;;;;45.45;6.22;;;;;;;12.91;100.00;97242.28;4998539;28;20482;-59
2024/04/02 08:12:12;;;;;;;44.85;6.47;;;;;;;13.33;100.00;97238.59;4998511;28;20057;-58
2024/04/02 08:14:38;;;;;;;48.70;7.22;;;;;;;14.24;100.00;97242.16;5000971;28;20038;-58
2024/04/02 08:17:03;;;;;;;99.70;43.08;;;;;;;13.88;100.00;97244.06;4996171;28;20349;-60
2024/04/02 08:19:29;;;;;;;40.05;5.88;;;;;;;15.13;100.00;97240.25;5003945;28;20354;-60
2024/04/02 08:21:55;;;;;;;61.63;14.77;;;;;;;16.09;100.00;97237.78;4995306;28;20038;-63
2024/04/02 08:24:22;;;;;;;50.70;7.22;;;;;;;17.02;95.84;97243.78;4992660;28;20040;-62
2024/04/02 08:26:47;;;;;;;47.38;6.63;;;;;;;17.90;90.36;97247.06;4991836;28;20068;-60
2024/04/02 08:29:13;;;;;;;59.15;7.55;;;;;;;16.42;86.24;97255.78;4997885;28;20117;-61
2024/04/02 08:31:38;;;;;;;55.40;9.23;;;;;;;15.00;97.51;97259.91;4998943;28;20138;-60
2024/04/02 08:34:03;;;;;;;40.92;10.23;;;;;;;14.48;100.00;97258.03;4996939;28;20206;-61
2024/04/02 08:36:29;;;;;;;53.75;6.43;;;;;;;13.30;100.00;97265.63;4993944;28;20061;-61
2024/04/02 08:38:55;;;;;;;73.63;14.45;;;;;;;12.61;100.00;97267.31;4992988;28;20026;-60
2024/04/02 08:41:21;;;;;;;58.40;17.77;;;;;;;12.94;100.00;97273.47;4997490;28;20121;-60
2024/04/02 08:43:47;;;;;;;56.83;9.10;;;;;;;12.96;100.00;97274.31;5000283;28;20109;-61
2024/04/02 08:46:14;;;;;;;42.85;6.47;;;;;;;12.56;100.00;97278.72;4995396;28;20047;-60
2024/04/02 08:48:40;;;;;;;51.10;7.00;;;;;;;12.60;100.00;97286.47;4989679;28;20033;-59
2024/04/02 08:51:05;;;;;;;55.65;8.35;;;;;;;12.46;100.00;97294.59;4994743;28;20042;-59
2024/04/02 08:53:34;;;;;;;112.25;72.90;;;;;;;11.98;100.00;97299.03;4999649;28;20032;-60
2024/04/02 08:55:59;;;;;;;68.60;8.05;;;;;;;12.11;100.00;97307.47;4998326;28;20029;-60
2024/04/02 08:58:27;;;;;;;46.15;6.65;;;;;;;11.88;100.00;97313.09;4997849;28;20168;-60
2024/04/02 09:00:53;;;;;;;72.93;8.52;;;;;;;11.55;100.00;97326.75;4995867;28;20556;-58
2024/04/02 09:03:19;;;;;;;40.60;5.85;;;;;;;11.41;100.00;97318.31;4993352;28;20570;-60
2024/04/02 09:05:45;;;;;;;47.40;6.22;;;;;;;11.56;100.00;97331.09;4996186;28;20062;-63
2024/04/02 09:08:13;;;;;;;68.88;8.60;;;;;;;11.28;100.00;97341.97;4995173;28;20084;-60
2024/04/02 09:10:39;;;;;;;65.10;10.77;;;;;;;11.09;100.00;97335.34;4996042;28;20050;-62
2024/04/02 09:13:05;;;;;;;67.22;11.93;;;;;;;10.87;100.00;97343.50;4992188;28;20092;-60
2024/04/02 09:15:30;;;;;;;60.95;7.55;;;;;;;10.85;100.00;97340.91;4996156;28;20171;-59
2024/04/02 09:17:55;;;;;;;62.10;10.45;;;;;;;10.95;100.00;97349.41;4995352;28;20031;-60
2024/04/02 09:20:21;;;;;;;47.53;20.17;;;;;;;11.10;100.00;97344.88;4993283;28;20026;-59
2024/04/02 09:22:47;;;;;;;58.65;8.38;;;;;;;11.37;100.00;97353.09;4999432;28;20048;-60
2024/04/02 09:25:13;;;;;;;65.38;12.70;;;;;;;11.83;100.00;97341.88;4995896;28;20026;-58
2024/04/02 09:27:39;;;;;;;42.95;8.48;;;;;;;12.03;100.00;97343.22;4994569;28;20032;-62
2024/04/02 09:30:05;;;;;;;90.13;30.42;;;;;;;11.71;100.00;97332.56;4997635;28;20588;-60
2024/04/02 09:32:35;;;;;;;45.88;8.75;;;;;;;11.74;100.00;97343.78;4995068;28;20046;-60
2024/04/02 09:35:08;;;;;;;87.57;12.20;;;;;;;11.63;100.00;97355.28;4994506;28;20161;-60
2024/04/02 09:37:37;;;;;;;65.70;13.25;;;;;;;11.35;100.00;97360.09;4995439;28;20109;-59
2024/04/02 09:40:03;;;;;;;84.50;9.63;;;;;;;11.24;100.00;97358.50;4997703;28;20152;-60
2024/04/02 09:42:33;;;;;;;56.92;24.60;;;;;;;11.22;100.00;97347.28;4995015;28;20034;-61
2024/04/02 09:44:59;;;;;;;84.65;20.92;;;;;;;11.58;100.00;97352.75;4993349;28;20052;-61
2024/04/02 09:47:25;;;;;;;62.67;16.95;;;;;;;12.00;100.00;97355.47;4998549;28;20171;-59
2024/04/02 09:49:52;;;;;;;44.33;6.25;;;;;;;13.57;100.00;97359.88;4999209;28;20025;-59
2024/04/02 09:52:19;;;;;;;39.50;6.93;;;;;;;15.02;100.00;97352.34;4994556;28;20038;-60
2024/04/02 09:54:45;;;;;;;54.60;6.90;;;;;;;14.29;100.00;97353.59;4995569;28;20065;-58
2024/04/02 09:57:12;;;;;;;84.47;32.97;;;;;;;15.05;100.00;97345.28;4993659;28;20422;-59
2024/04/02 09:59:38;;;;;;;60.80;7.47;;;;;;;14.78;100.00;97352.22;4993778;28;20029;-61
2024/04/02 10:02:07;;;;;;;53.95;12.10;;;;;;;14.98;100.00;97354.22;4988775;28;20038;-61
2024/04/02 10:04:33;;;;;;;38.60;6.40;;;;;;;15.91;100.00;97350.28;4995736;28;21165;-60
2024/04/02 10:07:00;;;;;;;58.83;7.55;;;;;;;15.63;100.00;97351.25;4996945;28;20077;-58
2024/04/02 10:09:25;;;;;;;35.00;5.63;;;;;;;13.93;100.00;97345.88;4998950;28;20034;-59
2024/04/02 10:11:51;;;;;;;51.88;6.55;;;;;;;13.46;100.00;97359.25;4994963;28;20065;-61
2024/04/02 10:14:18;;;;;;;47.33;8.38;;;;;;;13.13;100.00;97360.03;4998847;28;21096;-58
2024/04/02 10:16:45;;;;;;;53.55;6.82;;;;;;;13.89;100.00;97362.56;4992408;28;20148;-59
2024/04/02 10:19:22;;;;;;;73.57;7.85;;;;;;;13.83;100.00;97358.34;4992792;28;20458;-60
2024/04/02 10:21:48;;;;;;;52.30;6.75;;;;;;;13.59;100.00;97360.69;4994156;28;20037;-60
2024/04/02 10:24:18;;;;;;;62.35;7.65;;;;;;;13.67;100.00;97340.44;4995320;28;20048;-61
2024/04/02 10:26:43;;;;;;;50.38;7.13;;;;;;;13.54;100.00;97349.50;5004356;28;20556;-60
2024/04/02 10:29:09;;;;;;;73.70;8.32;;;;;;;13.33;100.00;97353.50;4998029;28;20021;-61
2024/04/02 10:31:39;;;;;;;45.88;6.18;;;;;;;13.26;100.00;97352.78;4995167;28;20053;-61
2024/04/02 10:34:07;;;;;;;87.28;9.82;;;;;;;13.19;100.00;97351.22;4995663;28;20460;-60
2024/04/02 10:36:34;;;;;;;46.10;6.45;;;;;;;13.47;100.00;97355.78;4996095;28;20231;-61
2024/04/02 10:38:59;;;;;;;62.97;7.85;;;;;;;13.96;100.00;97356.28;4989327;28;20141;-58
2024/04/02 10:41:31;;;;;;;53.72;7.13;;;;;;;13.90;100.00;97354.69;4995881;28;20124;-59
2024/04/02 10:43:57;;;;;;;56.05;7.20;;;;;;;14.79;100.00;97354.78;4995148;28;20372;-62
2024/04/02 10:46:26;;;;;;;39.40;6.78;;;;;;;15.15;96.49;97358.06;4992227;28;20061;-59
2024/04/02 10:48:55;;;;;;;68.30;8.55;;;;;;;16.42;87.15;97344.13;4997150;28;20031;-60
2024/04/02 10:51:22;;;;;;;45.40;6.63;;;;;;;16.94;82.16;97351.78;4990950;28;20062;-62
2024/04/02 10:53:47;;;;;;;49.05;6.88;;;;;;;15.75;79.44;97349.97;4992377;28;20298;-58
2024/04/02 10:56:14;;;;;;;63.55;15.73;;;;;;;15.01;86.61;97342.78;4992656;28;20908;-60
2024/04/02 10:58:39;;;;;;;42.47;7.22;;;;;;;15.73;89.41;97355.25;4990628;28;20896;-61
2024/04/02 11:01:05;;;;;;;93.95;42.10;;;;;;;14.68;97.38;97347.25;4986483;28;20042;-61
2024/04/02 11:03:30;;;;;;;47.13;6.55;;;;;;;13.57;100.00;97359.00;4991995;28;20035;-60
2024/04/02 11:05:55;;;;;;;55.10;7.53;;;;;;;14.37;100.00;97363.84;4992445;28;20045;-59
2024/04/02 11:08:21;;;;;;;54.47;7.03;;;;;;;16.13;100.00;97363.53;4995819;28;20200;-60
2024/04/02 11:10:48;;;;;;;67.00;8.20;;;;;;;15.96;100.00;97361.50;4995616;28;20030;-61